Metar GG30 METAR message from awiacja.imgw.pl Metar G30 EPWR METAR EPWR 040930Z 34011KT 8000 -RA BKN005 15/14 Q1010 =